sensor_id;sensor_type;location;lat;lon;timestamp;temperature;humidity
63931;DHT22;50111;48.114;-2.066;2022-12-18T00:01:29;-2.70;99.90
63931;DHT22;50111;48.114;-2.066;2022-12-18T00:03:56;-2.70;99.90
63931;DHT22;50111;48.114;-2.066;2022-12-18T00:06:22;-2.60;99.90
63931;DHT22;50111;48.114;-2.066;2022-12-18T00:08:48;-2.70;99.90
63931;DHT22;50111;48.114;-2.066;2022-12-18T00:11:15;-2.60;99.90
63931;DHT22;50111;48.114;-2.066;2022-12-18T00:13:41;-2.60;99.90
63931;DHT22;50111;48.114;-2.066;2022-12-18T00:16:07;-2.60;99.90
63931;DHT22;50111;48.114;-2.066;2022-12-18T00:18:33;-2.50;99.90
63931;DHT22;50111;48.114;-2.066;2022-12-18T00:20:59;-2.50;99.90
63931;DHT22;50111;48.114;-2.066;2022-12-18T00:23:26;-2.50;99.90
63931;DHT22;50111;48.114;-2.066;2022-12-18T00:25:52;-2.50;99.90
63931;DHT22;50111;48.114;-2.066;2022-12-18T00:28:17;-2.40;99.90
63931;DHT22;50111;48.114;-2.066;2022-12-18T00:30:43;-2.30;99.90
63931;DHT22;50111;48.114;-2.066;2022-12-18T00:33:08;-2.30;99.90
63931;DHT22;50111;48.114;-2.066;2022-12-18T00:35:34;-2.30;99.90
63931;DHT22;50111;48.114;-2.066;2022-12-18T00:37:59;-2.30;99.90
63931;DHT22;50111;48.114;-2.066;2022-12-18T00:40:25;-2.30;99.90
63931;DHT22;50111;48.114;-2.066;2022-12-18T00:42:50;-2.30;99.90
63931;DHT22;50111;48.114;-2.066;2022-12-18T00:45:22;-2.20;99.90
63931;DHT22;50111;48.114;-2.066;2022-12-18T00:47:48;-2.20;99.90
63931;DHT22;50111;48.114;-2.066;2022-12-18T00:50:14;-2.20;99.90
63931;DHT22;50111;48.114;-2.066;2022-12-18T00:52:39;-2.20;99.90
63931;DHT22;50111;48.114;-2.066;2022-12-18T00:55:05;-2.20;99.90
63931;DHT22;50111;48.114;-2.066;2022-12-18T00:57:30;-2.30;99.90
63931;DHT22;50111;48.114;-2.066;2022-12-18T00:59:57;-2.30;99.90
63931;DHT22;50111;48.114;-2.066;2022-12-18T01:02:22;-2.30;99.90
63931;DHT22;50111;48.114;-2.066;2022-12-18T01:04:48;-2.30;99.90
63931;DHT22;50111;48.114;-2.066;2022-12-18T01:07:13;-2.10;99.90
63931;DHT22;50111;48.114;-2.066;2022-12-18T01:09:39;-2.20;99.90
63931;DHT22;50111;48.114;-2.066;2022-12-18T01:12:05;-2.20;99.90
63931;DHT22;50111;48.114;-2.066;2022-12-18T01:14:30;-2.30;99.90
63931;DHT22;50111;48.114;-2.066;2022-12-18T01:16:56;-2.40;99.90
63931;DHT22;50111;48.114;-2.066;2022-12-18T01:19:22;-2.30;99.90
63931;DHT22;50111;48.114;-2.066;2022-12-18T01:21:49;-2.30;99.90
63931;DHT22;50111;48.114;-2.066;2022-12-18T01:24:14;-2.30;99.90
63931;DHT22;50111;48.114;-2.066;2022-12-18T01:26:40;-2.30;99.90
63931;DHT22;50111;48.114;-2.066;2022-12-18T01:29:05;-2.20;99.90
63931;DHT22;50111;48.114;-2.066;2022-12-18T01:31:32;-2.20;99.90
63931;DHT22;50111;48.114;-2.066;2022-12-18T01:34:02;-2.20;99.90
63931;DHT22;50111;48.114;-2.066;2022-12-18T01:36:32;-2.20;99.90
63931;DHT22;50111;48.114;-2.066;2022-12-18T01:39:02;-2.20;99.90
63931;DHT22;50111;48.114;-2.066;2022-12-18T01:41:28;-2.20;99.90
63931;DHT22;50111;48.114;-2.066;2022-12-18T01:46:59;-2.20;99.90
63931;DHT22;50111;48.114;-2.066;2022-12-18T01:49:25;-2.20;99.90
63931;DHT22;50111;48.114;-2.066;2022-12-18T01:51:50;-2.10;99.90
63931;DHT22;50111;48.114;-2.066;2022-12-18T01:54:16;-2.10;99.90
63931;DHT22;50111;48.114;-2.066;2022-12-18T01:56:41;-2.00;99.90
63931;DHT22;50111;48.114;-2.066;2022-12-18T01:59:07;-2.00;99.90
63931;DHT22;50111;48.114;-2.066;2022-12-18T02:01:33;-2.00;99.90
63931;DHT22;50111;48.114;-2.066;2022-12-18T02:06:42;-2.00;99.90
63931;DHT22;50111;48.114;-2.066;2022-12-18T02:09:10;-2.00;99.90
63931;DHT22;50111;48.114;-2.066;2022-12-18T02:11:40;-2.00;99.90
63931;DHT22;50111;48.114;-2.066;2022-12-18T02:24:35;-2.00;99.90
63931;DHT22;50111;48.114;-2.066;2022-12-18T02:27:03;-2.00;99.90
63931;DHT22;50111;48.114;-2.066;2022-12-18T02:29:35;-1.90;99.90
63931;DHT22;50111;48.114;-2.066;2022-12-18T02:32:02;-2.00;99.90
63931;DHT22;50111;48.114;-2.066;2022-12-18T02:34:29;-1.90;99.90
63931;DHT22;50111;48.114;-2.066;2022-12-18T02:36:57;-1.90;99.90
63931;DHT22;50111;48.114;-2.066;2022-12-18T02:39:23;-2.00;99.90
63931;DHT22;50111;48.114;-2.066;2022-12-18T02:41:50;-2.00;99.90
63931;DHT22;50111;48.114;-2.066;2022-12-18T02:44:15;-2.00;99.90
63931;DHT22;50111;48.114;-2.066;2022-12-18T02:46:42;-1.90;99.90
63931;DHT22;50111;48.114;-2.066;2022-12-18T02:51:55;-1.80;99.90
63931;DHT22;50111;48.114;-2.066;2022-12-18T02:54:33;-1.80;99.90
63931;DHT22;50111;48.114;-2.066;2022-12-18T02:57:04;-1.70;99.90
63931;DHT22;50111;48.114;-2.066;2022-12-18T02:59:41;-1.60;99.90
63931;DHT22;50111;48.114;-2.066;2022-12-18T03:02:17;-1.60;99.90
63931;DHT22;50111;48.114;-2.066;2022-12-18T03:04:43;-1.50;99.90
63931;DHT22;50111;48.114;-2.066;2022-12-18T03:07:15;-1.40;99.90
63931;DHT22;50111;48.114;-2.066;2022-12-18T03:09:43;-1.40;99.90
63931;DHT22;50111;48.114;-2.066;2022-12-18T03:12:18;-1.50;99.90
63931;DHT22;50111;48.114;-2.066;2022-12-18T03:17:17;-1.50;99.90
63931;DHT22;50111;48.114;-2.066;2022-12-18T03:19:44;-1.30;99.90
63931;DHT22;50111;48.114;-2.066;2022-12-18T03:22:11;-1.30;99.90
63931;DHT22;50111;48.114;-2.066;2022-12-18T03:24:37;-1.30;99.90
63931;DHT22;50111;48.114;-2.066;2022-12-18T03:27:06;-1.30;99.90
63931;DHT22;50111;48.114;-2.066;2022-12-18T03:29:33;-1.40;99.90
63931;DHT22;50111;48.114;-2.066;2022-12-18T03:32:16;-1.40;99.90
63931;DHT22;50111;48.114;-2.066;2022-12-18T03:34:44;-1.40;99.90
63931;DHT22;50111;48.114;-2.066;2022-12-18T03:37:12;-1.30;99.90
63931;DHT22;50111;48.114;-2.066;2022-12-18T03:39:38;-1.40;99.90
63931;DHT22;50111;48.114;-2.066;2022-12-18T03:42:18;-1.30;99.90
63931;DHT22;50111;48.114;-2.066;2022-12-18T03:50:14;-1.20;99.90
63931;DHT22;50111;48.114;-2.066;2022-12-18T03:54:58;-1.20;99.90
63931;DHT22;50111;48.114;-2.066;2022-12-18T03:57:26;-1.20;99.90
63931;DHT22;50111;48.114;-2.066;2022-12-18T03:59:57;-1.20;99.90
63931;DHT22;50111;48.114;-2.066;2022-12-18T04:02:25;-1.20;99.90
63931;DHT22;50111;48.114;-2.066;2022-12-18T04:04:51;-1.20;99.90
63931;DHT22;50111;48.114;-2.066;2022-12-18T04:07:18;-1.20;99.90
63931;DHT22;50111;48.114;-2.066;2022-12-18T04:09:44;-1.20;99.90
63931;DHT22;50111;48.114;-2.066;2022-12-18T04:12:10;-1.10;99.90
63931;DHT22;50111;48.114;-2.066;2022-12-18T04:14:36;-1.10;99.90
63931;DHT22;50111;48.114;-2.066;2022-12-18T04:17:02;-1.10;99.90
63931;DHT22;50111;48.114;-2.066;2022-12-18T04:19:27;-1.00;99.90
63931;DHT22;50111;48.114;-2.066;2022-12-18T04:21:53;-0.90;99.90
63931;DHT22;50111;48.114;-2.066;2022-12-18T04:24:19;-0.90;99.90
63931;DHT22;50111;48.114;-2.066;2022-12-18T04:26:44;-0.90;99.90
63931;DHT22;50111;48.114;-2.066;2022-12-18T04:29:10;-0.90;99.90
63931;DHT22;50111;48.114;-2.066;2022-12-18T04:31:35;-0.90;99.90
63931;DHT22;50111;48.114;-2.066;2022-12-18T04:34:01;-0.90;99.90
63931;DHT22;50111;48.114;-2.066;2022-12-18T04:36:27;-0.80;99.90
63931;DHT22;50111;48.114;-2.066;2022-12-18T04:38:52;-0.80;99.90
63931;DHT22;50111;48.114;-2.066;2022-12-18T04:41:18;-0.80;99.90
63931;DHT22;50111;48.114;-2.066;2022-12-18T04:43:43;-0.80;99.90
63931;DHT22;50111;48.114;-2.066;2022-12-18T04:46:09;-0.80;99.90
63931;DHT22;50111;48.114;-2.066;2022-12-18T04:48:35;-0.80;99.90
63931;DHT22;50111;48.114;-2.066;2022-12-18T04:51:00;-0.80;99.90
63931;DHT22;50111;48.114;-2.066;2022-12-18T04:53:26;-0.70;99.90
63931;DHT22;50111;48.114;-2.066;2022-12-18T04:56:02;-0.70;99.90
63931;DHT22;50111;48.114;-2.066;2022-12-18T04:58:28;-0.70;99.90
63931;DHT22;50111;48.114;-2.066;2022-12-18T05:00:53;-0.70;99.90
63931;DHT22;50111;48.114;-2.066;2022-12-18T05:03:18;-0.70;99.90
63931;DHT22;50111;48.114;-2.066;2022-12-18T05:05:44;-0.60;99.90
63931;DHT22;50111;48.114;-2.066;2022-12-18T05:08:09;-0.60;99.90
63931;DHT22;50111;48.114;-2.066;2022-12-18T05:10:35;-0.60;99.90
63931;DHT22;50111;48.114;-2.066;2022-12-18T05:13:00;-0.60;99.90
63931;DHT22;50111;48.114;-2.066;2022-12-18T05:15:27;-0.70;99.90
63931;DHT22;50111;48.114;-2.066;2022-12-18T05:17:52;-0.70;99.90
63931;DHT22;50111;48.114;-2.066;2022-12-18T05:20:18;-0.60;99.90
63931;DHT22;50111;48.114;-2.066;2022-12-18T05:22:44;-0.70;99.90
63931;DHT22;50111;48.114;-2.066;2022-12-18T05:25:09;-0.60;99.90
63931;DHT22;50111;48.114;-2.066;2022-12-18T05:27:35;-0.50;99.90
63931;DHT22;50111;48.114;-2.066;2022-12-18T05:30:00;-0.60;99.90
63931;DHT22;50111;48.114;-2.066;2022-12-18T05:32:26;-0.60;99.90
63931;DHT22;50111;48.114;-2.066;2022-12-18T05:34:51;-0.60;99.90
63931;DHT22;50111;48.114;-2.066;2022-12-18T05:37:17;-0.50;99.90
63931;DHT22;50111;48.114;-2.066;2022-12-18T05:39:43;-0.40;99.90
63931;DHT22;50111;48.114;-2.066;2022-12-18T05:42:08;-0.50;99.90
63931;DHT22;50111;48.114;-2.066;2022-12-18T05:44:34;-0.40;99.90
63931;DHT22;50111;48.114;-2.066;2022-12-18T05:46:59;-0.40;99.90
63931;DHT22;50111;48.114;-2.066;2022-12-18T05:49:26;-0.40;99.90
63931;DHT22;50111;48.114;-2.066;2022-12-18T05:51:51;-0.30;99.90
63931;DHT22;50111;48.114;-2.066;2022-12-18T05:54:17;-0.30;99.90
63931;DHT22;50111;48.114;-2.066;2022-12-18T05:56:42;-0.30;99.90
63931;DHT22;50111;48.114;-2.066;2022-12-18T05:59:08;-0.30;99.90
63931;DHT22;50111;48.114;-2.066;2022-12-18T06:01:33;-0.30;99.90
63931;DHT22;50111;48.114;-2.066;2022-12-18T06:03:59;-0.20;99.90
63931;DHT22;50111;48.114;-2.066;2022-12-18T06:06:26;-0.20;99.90
63931;DHT22;50111;48.114;-2.066;2022-12-18T06:08:51;-0.20;99.90
63931;DHT22;50111;48.114;-2.066;2022-12-18T06:11:21;-0.20;99.90
63931;DHT22;50111;48.114;-2.066;2022-12-18T06:13:49;-0.20;99.90
63931;DHT22;50111;48.114;-2.066;2022-12-18T06:16:15;-0.10;99.90
63931;DHT22;50111;48.114;-2.066;2022-12-18T06:18:40;-0.10;99.90
63931;DHT22;50111;48.114;-2.066;2022-12-18T06:21:06;-0.20;99.90
63931;DHT22;50111;48.114;-2.066;2022-12-18T06:23:31;-0.20;99.90
63931;DHT22;50111;48.114;-2.066;2022-12-18T06:25:57;-0.10;99.90
63931;DHT22;50111;48.114;-2.066;2022-12-18T06:28:22;-0.10;99.90
63931;DHT22;50111;48.114;-2.066;2022-12-18T06:30:48;-0.10;99.90
63931;DHT22;50111;48.114;-2.066;2022-12-18T06:33:14;0.00;99.90
63931;DHT22;50111;48.114;-2.066;2022-12-18T06:35:40;0.00;99.90
63931;DHT22;50111;48.114;-2.066;2022-12-18T06:38:06;-0.10;99.90
63931;DHT22;50111;48.114;-2.066;2022-12-18T06:40:33;0.10;99.90
63931;DHT22;50111;48.114;-2.066;2022-12-18T06:42:58;0.00;99.90
63931;DHT22;50111;48.114;-2.066;2022-12-18T06:45:24;0.10;99.90
63931;DHT22;50111;48.114;-2.066;2022-12-18T06:47:49;0.10;99.90
63931;DHT22;50111;48.114;-2.066;2022-12-18T06:50:15;0.10;99.90
63931;DHT22;50111;48.114;-2.066;2022-12-18T06:52:41;0.10;99.90
63931;DHT22;50111;48.114;-2.066;2022-12-18T06:55:07;0.20;99.90
63931;DHT22;50111;48.114;-2.066;2022-12-18T06:57:33;0.20;99.90
63931;DHT22;50111;48.114;-2.066;2022-12-18T06:59:59;0.20;99.90
63931;DHT22;50111;48.114;-2.066;2022-12-18T07:02:24;0.20;99.90
63931;DHT22;50111;48.114;-2.066;2022-12-18T07:04:50;0.30;99.90
63931;DHT22;50111;48.114;-2.066;2022-12-18T07:07:15;0.30;99.90
63931;DHT22;50111;48.114;-2.066;2022-12-18T07:09:41;0.30;99.90
63931;DHT22;50111;48.114;-2.066;2022-12-18T07:12:06;0.30;99.90
63931;DHT22;50111;48.114;-2.066;2022-12-18T07:14:33;0.30;99.90
63931;DHT22;50111;48.114;-2.066;2022-12-18T07:16:59;0.40;99.90
63931;DHT22;50111;48.114;-2.066;2022-12-18T07:19:24;0.40;99.90
63931;DHT22;50111;48.114;-2.066;2022-12-18T07:21:50;0.40;99.90
63931;DHT22;50111;48.114;-2.066;2022-12-18T07:24:15;0.40;99.90
63931;DHT22;50111;48.114;-2.066;2022-12-18T07:26:41;0.50;99.90
63931;DHT22;50111;48.114;-2.066;2022-12-18T07:29:06;0.50;99.90
63931;DHT22;50111;48.114;-2.066;2022-12-18T07:31:32;0.50;99.90
63931;DHT22;50111;48.114;-2.066;2022-12-18T07:33:57;0.50;99.90
63931;DHT22;50111;48.114;-2.066;2022-12-18T07:36:23;0.60;99.90
63931;DHT22;50111;48.114;-2.066;2022-12-18T07:38:49;0.70;99.90
63931;DHT22;50111;48.114;-2.066;2022-12-18T07:41:15;0.70;99.90
63931;DHT22;50111;48.114;-2.066;2022-12-18T07:43:41;0.70;99.90
63931;DHT22;50111;48.114;-2.066;2022-12-18T07:46:07;0.70;99.90
63931;DHT22;50111;48.114;-2.066;2022-12-18T07:48:33;0.70;99.90
63931;DHT22;50111;48.114;-2.066;2022-12-18T07:50:59;0.70;99.90
63931;DHT22;50111;48.114;-2.066;2022-12-18T07:53:24;0.80;99.90
63931;DHT22;50111;48.114;-2.066;2022-12-18T07:55:54;0.80;99.90
63931;DHT22;50111;48.114;-2.066;2022-12-18T07:58:20;0.80;99.90
63931;DHT22;50111;48.114;-2.066;2022-12-18T08:00:45;0.80;99.90
63931;DHT22;50111;48.114;-2.066;2022-12-18T08:03:11;0.80;99.90
63931;DHT22;50111;48.114;-2.066;2022-12-18T08:05:38;0.80;99.90
63931;DHT22;50111;48.114;-2.066;2022-12-18T08:08:04;0.90;99.90
63931;DHT22;50111;48.114;-2.066;2022-12-18T08:10:29;0.90;99.90
63931;DHT22;50111;48.114;-2.066;2022-12-18T08:12:55;0.90;99.90
63931;DHT22;50111;48.114;-2.066;2022-12-18T08:15:20;0.90;99.90
63931;DHT22;50111;48.114;-2.066;2022-12-18T08:17:46;1.00;99.90
63931;DHT22;50111;48.114;-2.066;2022-12-18T08:20:11;1.10;99.90
63931;DHT22;50111;48.114;-2.066;2022-12-18T08:22:39;1.10;99.90
63931;DHT22;50111;48.114;-2.066;2022-12-18T08:25:04;1.10;99.90
63931;DHT22;50111;48.114;-2.066;2022-12-18T08:27:30;1.10;99.90
63931;DHT22;50111;48.114;-2.066;2022-12-18T08:29:56;1.10;99.90
63931;DHT22;50111;48.114;-2.066;2022-12-18T08:32:22;1.10;99.90
63931;DHT22;50111;48.114;-2.066;2022-12-18T08:34:47;1.20;99.90
63931;DHT22;50111;48.114;-2.066;2022-12-18T08:37:13;1.20;99.90
63931;DHT22;50111;48.114;-2.066;2022-12-18T08:39:38;1.20;99.90
63931;DHT22;50111;48.114;-2.066;2022-12-18T08:42:03;1.20;99.90
63931;DHT22;50111;48.114;-2.066;2022-12-18T08:44:47;1.30;99.90
63931;DHT22;50111;48.114;-2.066;2022-12-18T08:47:13;1.30;99.90
63931;DHT22;50111;48.114;-2.066;2022-12-18T08:49:38;1.40;99.90
63931;DHT22;50111;48.114;-2.066;2022-12-18T08:52:04;1.40;99.90
63931;DHT22;50111;48.114;-2.066;2022-12-18T08:54:29;1.40;99.90
63931;DHT22;50111;48.114;-2.066;2022-12-18T08:56:55;1.50;99.90
63931;DHT22;50111;48.114;-2.066;2022-12-18T08:59:20;1.50;99.90
63931;DHT22;50111;48.114;-2.066;2022-12-18T09:01:46;1.50;99.90
63931;DHT22;50111;48.114;-2.066;2022-12-18T09:04:12;1.50;99.90
63931;DHT22;50111;48.114;-2.066;2022-12-18T09:06:39;1.60;99.90
63931;DHT22;50111;48.114;-2.066;2022-12-18T09:09:05;1.60;99.90
63931;DHT22;50111;48.114;-2.066;2022-12-18T09:11:31;1.60;99.90
63931;DHT22;50111;48.114;-2.066;2022-12-18T09:13:56;1.60;99.90
63931;DHT22;50111;48.114;-2.066;2022-12-18T09:16:22;1.60;99.90
63931;DHT22;50111;48.114;-2.066;2022-12-18T09:18:48;1.70;99.90
63931;DHT22;50111;48.114;-2.066;2022-12-18T09:21:15;1.70;99.90
63931;DHT22;50111;48.114;-2.066;2022-12-18T09:23:41;1.80;99.90
63931;DHT22;50111;48.114;-2.066;2022-12-18T09:26:07;1.70;99.90
63931;DHT22;50111;48.114;-2.066;2022-12-18T09:28:33;1.80;99.90
63931;DHT22;50111;48.114;-2.066;2022-12-18T09:30:58;1.80;99.90
63931;DHT22;50111;48.114;-2.066;2022-12-18T09:33:24;1.90;99.90
63931;DHT22;50111;48.114;-2.066;2022-12-18T09:35:49;1.90;99.90
63931;DHT22;50111;48.114;-2.066;2022-12-18T09:38:16;1.90;99.90
63931;DHT22;50111;48.114;-2.066;2022-12-18T09:40:49;2.10;99.90
63931;DHT22;50111;48.114;-2.066;2022-12-18T09:43:19;2.00;99.90
63931;DHT22;50111;48.114;-2.066;2022-12-18T09:45:50;2.00;99.90
63931;DHT22;50111;48.114;-2.066;2022-12-18T09:48:26;2.10;99.90
63931;DHT22;50111;48.114;-2.066;2022-12-18T09:50:55;2.10;99.90
63931;DHT22;50111;48.114;-2.066;2022-12-18T09:53:23;2.10;99.90
63931;DHT22;50111;48.114;-2.066;2022-12-18T09:55:49;2.10;99.90
63931;DHT22;50111;48.114;-2.066;2022-12-18T09:58:17;2.00;99.90
63931;DHT22;50111;48.114;-2.066;2022-12-18T10:00:44;2.10;99.90
63931;DHT22;50111;48.114;-2.066;2022-12-18T10:03:11;2.10;99.90
63931;DHT22;50111;48.114;-2.066;2022-12-18T10:08:13;2.10;99.90
63931;DHT22;50111;48.114;-2.066;2022-12-18T10:10:52;2.20;99.90
63931;DHT22;50111;48.114;-2.066;2022-12-18T10:13:27;2.30;99.90
63931;DHT22;50111;48.114;-2.066;2022-12-18T10:21:34;2.30;99.90
63931;DHT22;50111;48.114;-2.066;2022-12-18T10:24:18;2.30;99.90
63931;DHT22;50111;48.114;-2.066;2022-12-18T10:26:44;2.30;99.90
63931;DHT22;50111;48.114;-2.066;2022-12-18T10:29:13;2.30;99.90
63931;DHT22;50111;48.114;-2.066;2022-12-18T10:31:39;2.40;99.90
63931;DHT22;50111;48.114;-2.066;2022-12-18T10:34:08;2.50;99.90
63931;DHT22;50111;48.114;-2.066;2022-12-18T10:36:34;2.50;99.90
63931;DHT22;50111;48.114;-2.066;2022-12-18T10:39:42;2.50;99.90
63931;DHT22;50111;48.114;-2.066;2022-12-18T10:41:49;2.60;99.90
63931;DHT22;50111;48.114;-2.066;2022-12-18T10:44:16;2.70;99.90
63931;DHT22;50111;48.114;-2.066;2022-12-18T10:46:44;2.60;99.90
63931;DHT22;50111;48.114;-2.066;2022-12-18T10:49:20;2.70;99.90
63931;DHT22;50111;48.114;-2.066;2022-12-18T10:51:46;2.70;99.90
63931;DHT22;50111;48.114;-2.066;2022-12-18T10:54:16;2.70;99.90
63931;DHT22;50111;48.114;-2.066;2022-12-18T10:56:42;2.70;99.90
63931;DHT22;50111;48.114;-2.066;2022-12-18T10:59:09;2.80;99.90
63931;DHT22;50111;48.114;-2.066;2022-12-18T11:04:13;2.80;99.90
63931;DHT22;50111;48.114;-2.066;2022-12-18T11:07:00;2.80;99.90
63931;DHT22;50111;48.114;-2.066;2022-12-18T11:09:30;2.80;99.90
63931;DHT22;50111;48.114;-2.066;2022-12-18T11:11:58;2.90;99.90
63931;DHT22;50111;48.114;-2.066;2022-12-18T11:14:28;3.00;99.90
63931;DHT22;50111;48.114;-2.066;2022-12-18T11:16:55;3.00;99.90
63931;DHT22;50111;48.114;-2.066;2022-12-18T11:19:25;3.10;99.90
63931;DHT22;50111;48.114;-2.066;2022-12-18T11:21:51;3.10;99.90
63931;DHT22;50111;48.114;-2.066;2022-12-18T11:24:22;3.10;99.90
63931;DHT22;50111;48.114;-2.066;2022-12-18T11:26:51;3.20;99.90
63931;DHT22;50111;48.114;-2.066;2022-12-18T11:29:17;3.20;99.90
63931;DHT22;50111;48.114;-2.066;2022-12-18T11:31:43;3.20;99.90
63931;DHT22;50111;48.114;-2.066;2022-12-18T11:34:13;3.10;99.90
63931;DHT22;50111;48.114;-2.066;2022-12-18T11:36:41;3.20;99.90
63931;DHT22;50111;48.114;-2.066;2022-12-18T11:44:50;3.20;99.90
63931;DHT22;50111;48.114;-2.066;2022-12-18T11:47:31;3.30;99.90
63931;DHT22;50111;48.114;-2.066;2022-12-18T11:50:02;3.30;99.90
63931;DHT22;50111;48.114;-2.066;2022-12-18T11:52:38;3.30;99.90
63931;DHT22;50111;48.114;-2.066;2022-12-18T11:55:10;3.40;99.90
63931;DHT22;50111;48.114;-2.066;2022-12-18T11:57:42;3.50;99.90
63931;DHT22;50111;48.114;-2.066;2022-12-18T12:11:26;3.70;99.90
63931;DHT22;50111;48.114;-2.066;2022-12-18T12:14:16;3.80;99.90
63931;DHT22;50111;48.114;-2.066;2022-12-18T12:16:50;3.80;99.90
63931;DHT22;50111;48.114;-2.066;2022-12-18T12:24:43;4.00;99.90
63931;DHT22;50111;48.114;-2.066;2022-12-18T12:32:24;4.00;99.90
63931;DHT22;50111;48.114;-2.066;2022-12-18T12:34:57;4.10;99.90
63931;DHT22;50111;48.114;-2.066;2022-12-18T12:39:51;4.10;99.90
63931;DHT22;50111;48.114;-2.066;2022-12-18T12:45:27;4.40;99.90
63931;DHT22;50111;48.114;-2.066;2022-12-18T12:47:53;4.60;99.90
63931;DHT22;50111;48.114;-2.066;2022-12-18T12:50:20;4.70;99.90
63931;DHT22;50111;48.114;-2.066;2022-12-18T12:52:47;4.70;99.90
63931;DHT22;50111;48.114;-2.066;2022-12-18T12:55:16;4.80;99.90
63931;DHT22;50111;48.114;-2.066;2022-12-18T12:57:46;4.80;99.90
63931;DHT22;50111;48.114;-2.066;2022-12-18T13:00:16;4.90;99.90
63931;DHT22;50111;48.114;-2.066;2022-12-18T13:05:25;5.00;99.90
63931;DHT22;50111;48.114;-2.066;2022-12-18T13:07:54;5.10;99.90
63931;DHT22;50111;48.114;-2.066;2022-12-18T13:10:32;5.10;99.90
63931;DHT22;50111;48.114;-2.066;2022-12-18T13:12:59;5.10;99.90
63931;DHT22;50111;48.114;-2.066;2022-12-18T13:15:41;5.00;99.90
63931;DHT22;50111;48.114;-2.066;2022-12-18T13:20:36;5.00;99.90
63931;DHT22;50111;48.114;-2.066;2022-12-18T13:25:47;5.00;99.90
63931;DHT22;50111;48.114;-2.066;2022-12-18T13:28:13;5.00;99.90
63931;DHT22;50111;48.114;-2.066;2022-12-18T13:36:01;5.10;99.90
63931;DHT22;50111;48.114;-2.066;2022-12-18T13:40:54;5.20;99.90
63931;DHT22;50111;48.114;-2.066;2022-12-18T13:45:48;5.20;99.90
63931;DHT22;50111;48.114;-2.066;2022-12-18T13:48:18;5.10;99.90
63931;DHT22;50111;48.114;-2.066;2022-12-18T13:50:48;5.10;99.90
63931;DHT22;50111;48.114;-2.066;2022-12-18T13:53:20;5.10;99.90
63931;DHT22;50111;48.114;-2.066;2022-12-18T13:55:46;5.10;99.90
63931;DHT22;50111;48.114;-2.066;2022-12-18T13:58:12;5.20;99.90
63931;DHT22;50111;48.114;-2.066;2022-12-18T14:00:41;5.20;99.90
63931;DHT22;50111;48.114;-2.066;2022-12-18T14:03:24;5.20;99.90
63931;DHT22;50111;48.114;-2.066;2022-12-18T14:05:55;5.20;99.90
63931;DHT22;50111;48.114;-2.066;2022-12-18T14:08:21;5.20;99.90
63931;DHT22;50111;48.114;-2.066;2022-12-18T14:10:48;5.20;99.90
63931;DHT22;50111;48.114;-2.066;2022-12-18T14:13:36;5.20;99.90
63931;DHT22;50111;48.114;-2.066;2022-12-18T14:16:01;5.20;99.90
63931;DHT22;50111;48.114;-2.066;2022-12-18T14:20:56;5.30;99.90
63931;DHT22;50111;48.114;-2.066;2022-12-18T14:23:38;5.30;99.90
63931;DHT22;50111;48.114;-2.066;2022-12-18T14:26:19;5.30;99.90
63931;DHT22;50111;48.114;-2.066;2022-12-18T14:28:45;5.30;99.90
63931;DHT22;50111;48.114;-2.066;2022-12-18T14:31:26;5.30;99.90
63931;DHT22;50111;48.114;-2.066;2022-12-18T14:33:52;5.40;99.90
63931;DHT22;50111;48.114;-2.066;2022-12-18T14:36:19;5.40;99.90
63931;DHT22;50111;48.114;-2.066;2022-12-18T14:38:50;5.40;99.90
63931;DHT22;50111;48.114;-2.066;2022-12-18T14:41:16;5.40;99.90
63931;DHT22;50111;48.114;-2.066;2022-12-18T14:43:42;5.40;99.90
63931;DHT22;50111;48.114;-2.066;2022-12-18T14:46:28;5.40;99.90
63931;DHT22;50111;48.114;-2.066;2022-12-18T14:48:54;5.40;99.90
63931;DHT22;50111;48.114;-2.066;2022-12-18T14:51:23;5.50;99.90
63931;DHT22;50111;48.114;-2.066;2022-12-18T14:53:55;5.50;99.90
63931;DHT22;50111;48.114;-2.066;2022-12-18T14:56:25;5.50;99.90
63931;DHT22;50111;48.114;-2.066;2022-12-18T14:58:55;5.50;99.90
63931;DHT22;50111;48.114;-2.066;2022-12-18T15:01:22;5.50;99.90
63931;DHT22;50111;48.114;-2.066;2022-12-18T15:03:50;5.50;99.90
63931;DHT22;50111;48.114;-2.066;2022-12-18T15:06:24;5.50;99.90
63931;DHT22;50111;48.114;-2.066;2022-12-18T15:08:50;5.50;99.90
63931;DHT22;50111;48.114;-2.066;2022-12-18T15:11:49;5.50;99.90
63931;DHT22;50111;48.114;-2.066;2022-12-18T15:14:24;5.50;99.90
63931;DHT22;50111;48.114;-2.066;2022-12-18T15:16:51;5.60;99.90
63931;DHT22;50111;48.114;-2.066;2022-12-18T15:19:16;5.60;99.90
63931;DHT22;50111;48.114;-2.066;2022-12-18T15:21:42;5.60;99.90
63931;DHT22;50111;48.114;-2.066;2022-12-18T15:24:14;5.60;99.90
63931;DHT22;50111;48.114;-2.066;2022-12-18T15:26:41;5.60;99.90
63931;DHT22;50111;48.114;-2.066;2022-12-18T15:29:15;5.60;99.90
63931;DHT22;50111;48.114;-2.066;2022-12-18T15:31:42;5.60;99.90
63931;DHT22;50111;48.114;-2.066;2022-12-18T15:36:33;5.80;99.90
63931;DHT22;50111;48.114;-2.066;2022-12-18T15:39:02;5.90;99.90
63931;DHT22;50111;48.114;-2.066;2022-12-18T15:41:28;6.00;99.90
63931;DHT22;50111;48.114;-2.066;2022-12-18T15:43:56;6.20;99.90
63931;DHT22;50111;48.114;-2.066;2022-12-18T15:46:22;6.20;99.90
63931;DHT22;50111;48.114;-2.066;2022-12-18T15:48:49;6.20;99.90
63931;DHT22;50111;48.114;-2.066;2022-12-18T15:53:41;6.40;99.90
63931;DHT22;50111;48.114;-2.066;2022-12-18T15:56:10;6.40;99.90
63931;DHT22;50111;48.114;-2.066;2022-12-18T15:58:54;6.50;99.90
63931;DHT22;50111;48.114;-2.066;2022-12-18T16:01:20;6.40;99.90
63931;DHT22;50111;48.114;-2.066;2022-12-18T16:03:47;6.40;99.90
63931;DHT22;50111;48.114;-2.066;2022-12-18T16:06:13;6.40;99.90
63931;DHT22;50111;48.114;-2.066;2022-12-18T16:08:38;6.50;99.90
63931;DHT22;50111;48.114;-2.066;2022-12-18T16:11:04;6.60;99.90
63931;DHT22;50111;48.114;-2.066;2022-12-18T16:13:30;6.60;99.90
63931;DHT22;50111;48.114;-2.066;2022-12-18T16:15:56;6.60;99.90
63931;DHT22;50111;48.114;-2.066;2022-12-18T16:18:21;6.60;99.90
63931;DHT22;50111;48.114;-2.066;2022-12-18T16:20:47;6.70;99.90
63931;DHT22;50111;48.114;-2.066;2022-12-18T16:23:12;6.70;99.90
63931;DHT22;50111;48.114;-2.066;2022-12-18T16:25:38;6.70;99.90
63931;DHT22;50111;48.114;-2.066;2022-12-18T16:28:04;6.60;99.90
63931;DHT22;50111;48.114;-2.066;2022-12-18T16:30:30;6.60;99.90
63931;DHT22;50111;48.114;-2.066;2022-12-18T16:32:56;6.60;99.90
63931;DHT22;50111;48.114;-2.066;2022-12-18T16:35:22;6.50;99.90
63931;DHT22;50111;48.114;-2.066;2022-12-18T16:37:48;6.60;99.90
63931;DHT22;50111;48.114;-2.066;2022-12-18T16:40:14;6.60;99.90
63931;DHT22;50111;48.114;-2.066;2022-12-18T16:42:41;6.60;99.90
63931;DHT22;50111;48.114;-2.066;2022-12-18T16:45:07;6.60;99.90
63931;DHT22;50111;48.114;-2.066;2022-12-18T16:47:33;6.60;99.90
63931;DHT22;50111;48.114;-2.066;2022-12-18T16:49:59;6.60;99.90
63931;DHT22;50111;48.114;-2.066;2022-12-18T16:52:25;6.60;99.90
63931;DHT22;50111;48.114;-2.066;2022-12-18T16:54:50;6.60;99.90
63931;DHT22;50111;48.114;-2.066;2022-12-18T16:57:17;6.70;99.90
63931;DHT22;50111;48.114;-2.066;2022-12-18T16:59:42;6.70;99.90
63931;DHT22;50111;48.114;-2.066;2022-12-18T17:02:18;6.80;99.90
63931;DHT22;50111;48.114;-2.066;2022-12-18T17:04:44;6.70;99.90
63931;DHT22;50111;48.114;-2.066;2022-12-18T17:07:09;6.80;99.90